Time;durP1;ratioP1;P1;durP2;ratioP2;P2;SDS_P1;SDS_P2;PMS_P1;PMS_P2;Temp;Humidity;BMP_temperature;BMP_pressure;BME280_temperature;BME280_humidity;BME280_pressure;Samples;Min_cycle;Max_cycle;Signal;HPM_P1;HPM_P2
2023/03/22 00:00:43;;;;;;;6.40;2.63;;;13.40;62.70;;;;;;5062223;28;20036;-65
2023/03/22 00:03:09;;;;;;;4.80;2.72;;;13.40;62.80;;;;;;5051852;28;20123;-65
2023/03/22 00:05:35;;;;;;;4.03;2.63;;;13.40;62.80;;;;;;5067771;28;20029;-65
2023/03/22 00:08:04;;;;;;;4.00;2.60;;;13.40;62.90;;;;;;5067109;28;20043;-65
2023/03/22 00:10:30;;;;;;;5.00;2.30;;;13.40;63.00;;;;;;5067459;28;20108;-65
2023/03/22 00:12:56;;;;;;;6.00;2.90;;;13.30;62.90;;;;;;5057389;28;20028;-65
2023/03/22 00:15:22;;;;;;;7.38;2.70;;;13.40;63.00;;;;;;5055980;28;20033;-65
2023/03/22 00:17:51;;;;;;;4.75;2.85;;;13.30;63.10;;;;;;5059980;28;20056;-65
2023/03/22 00:20:18;;;;;;;5.45;2.42;;;13.30;63.10;;;;;;5060780;28;20068;-65
2023/03/22 00:22:45;;;;;;;6.40;2.78;;;13.30;63.10;;;;;;5067994;28;20049;-65
2023/03/22 00:25:10;;;;;;;3.58;2.30;;;13.30;63.10;;;;;;5058670;28;20029;-66
2023/03/22 00:27:36;;;;;;;4.78;2.55;;;13.20;63.10;;;;;;5061770;28;20037;-64
2023/03/22 00:30:03;;;;;;;4.28;2.40;;;13.20;63.10;;;;;;5062615;28;20123;-65
2023/03/22 00:32:28;;;;;;;9.05;2.38;;;13.10;63.00;;;;;;5065579;28;20028;-64
2023/03/22 00:34:54;;;;;;;7.70;2.47;;;13.10;63.00;;;;;;5063635;28;20100;-64
2023/03/22 00:37:20;;;;;;;6.53;2.47;;;13.10;62.80;;;;;;5064790;28;20029;-64
2023/03/22 00:39:45;;;;;;;6.35;2.10;;;13.00;62.50;;;;;;5059422;28;20028;-63
2023/03/22 00:42:11;;;;;;;2.55;1.98;;;13.00;62.40;;;;;;5059877;28;20130;-66
2023/03/22 00:44:36;;;;;;;4.22;2.40;;;12.90;62.10;;;;;;5063405;28;20085;-64
2023/03/22 00:47:02;;;;;;;5.75;2.40;;;12.90;62.00;;;;;;5058892;28;20042;-64
2023/03/22 00:49:29;;;;;;;3.40;2.08;;;12.80;61.90;;;;;;5059035;28;20040;-64
2023/03/22 00:51:54;;;;;;;5.53;2.20;;;12.80;61.80;;;;;;5066854;28;20029;-64
2023/03/22 00:54:20;;;;;;;2.80;2.00;;;12.70;61.70;;;;;;5053328;28;20025;-64
2023/03/22 00:56:46;;;;;;;4.07;2.58;;;12.60;61.60;;;;;;5060633;28;20037;-64
2023/03/22 00:59:12;;;;;;;3.22;2.30;;;12.60;61.90;;;;;;5059973;28;20031;-64
2023/03/22 01:01:39;;;;;;;8.98;2.40;;;12.50;62.20;;;;;;5065986;28;20021;-64
2023/03/22 01:04:05;;;;;;;5.65;2.10;;;12.50;62.50;;;;;;5056719;28;20040;-64
2023/03/22 01:06:32;;;;;;;3.72;2.13;;;12.40;62.60;;;;;;5059525;28;20039;-64
2023/03/22 01:08:57;;;;;;;3.78;1.90;;;12.40;62.80;;;;;;5055130;28;20025;-64
2023/03/22 01:11:24;;;;;;;5.40;2.17;;;12.30;62.90;;;;;;5065990;28;20040;-64
2023/03/22 01:13:50;;;;;;;7.70;2.15;;;12.30;63.10;;;;;;5064797;28;20017;-64
2023/03/22 01:16:16;;;;;;;4.22;2.50;;;12.20;63.40;;;;;;5063193;28;20096;-64
2023/03/22 01:18:42;;;;;;;4.45;2.25;;;12.20;63.40;;;;;;5061971;28;20392;-64
2023/03/22 01:21:08;;;;;;;3.53;2.08;;;12.20;63.50;;;;;;5062400;28;20021;-64
2023/03/22 01:23:34;;;;;;;5.85;2.47;;;12.10;63.70;;;;;;5061842;28;20020;-65
2023/03/22 01:26:00;;;;;;;3.63;2.05;;;12.10;63.70;;;;;;5053522;28;20052;-64
2023/03/22 01:28:26;;;;;;;4.20;2.25;;;12.10;63.50;;;;;;5056188;28;20045;-64
2023/03/22 01:30:54;;;;;;;4.57;2.22;;;12.10;63.40;;;;;;5063302;28;20028;-65
2023/03/22 01:33:19;;;;;;;3.20;2.10;;;12.10;63.40;;;;;;5060724;28;20036;-65
2023/03/22 01:35:45;;;;;;;3.95;1.77;;;12.00;63.40;;;;;;5063321;28;20037;-64
2023/03/22 01:38:11;;;;;;;3.00;2.20;;;12.00;63.50;;;;;;5063730;28;20056;-64
2023/03/22 01:40:37;;;;;;;7.20;2.08;;;12.00;63.50;;;;;;5057708;28;20033;-66
2023/03/22 01:43:03;;;;;;;2.45;1.73;;;12.00;63.50;;;;;;5058753;28;20384;-65
2023/03/22 01:45:38;;;;;;;3.03;1.85;;;11.90;63.50;;;;;;5061146;28;20084;-65
2023/03/22 01:48:15;;;;;;;3.35;1.90;;;11.90;63.70;;;;;;5051000;28;20438;-66
2023/03/22 01:50:54;;;;;;;4.35;1.55;;;11.90;63.70;;;;;;5061386;28;20093;-65
2023/03/22 01:53:24;;;;;;;2.95;1.90;;;11.80;63.60;;;;;;5057894;28;20056;-64
2023/03/22 01:55:51;;;;;;;5.88;2.20;;;11.80;63.50;;;;;;5065672;28;20080;-65
2023/03/22 01:58:17;;;;;;;3.80;1.80;;;11.80;63.60;;;;;;5052679;28;20547;-64
2023/03/22 02:00:45;;;;;;;6.32;2.15;;;11.70;63.50;;;;;;5059405;28;20045;-64
2023/03/22 02:03:15;;;;;;;4.43;1.98;;;11.60;63.60;;;;;;5064082;28;20044;-63
2023/03/22 02:05:42;;;;;;;3.13;1.90;;;11.60;63.60;;;;;;5069985;28;20028;-65
2023/03/22 02:08:07;;;;;;;4.43;1.63;;;11.50;63.50;;;;;;5063822;28;20090;-65
2023/03/22 02:10:33;;;;;;;6.43;1.85;;;11.50;63.60;;;;;;5059010;28;20028;-65
2023/03/22 02:13:08;;;;;;;3.65;1.77;;;11.50;63.70;;;;;;5062331;28;20033;-65
2023/03/22 02:16:03;;;;;;;5.38;1.52;;;11.40;64.00;;;;;;5060635;28;20164;-65
2023/03/22 02:18:39;;;;;;;;;;;11.30;63.60;;;;;;5045633;28;20041;-65
2023/03/22 02:21:11;;;;;;;4.35;1.60;;;11.30;63.90;;;;;;5057287;28;19912;-65
2023/03/22 02:23:49;;;;;;;3.70;1.98;;;11.20;63.40;;;;;;5060343;28;20026;-65
2023/03/22 02:26:53;;;;;;;1.95;1.42;;;11.20;63.80;;;;;;5054529;28;20156;-65
2023/03/22 02:29:43;;;;;;;2.15;1.80;;;11.10;63.90;;;;;;5063534;28;20499;-65
2023/03/22 02:32:31;;;;;;;3.97;1.73;;;11.00;63.30;;;;;;5056121;28;20119;-64
2023/03/22 02:35:04;;;;;;;3.22;1.70;;;11.00;64.00;;;;;;5080891;28;20048;-65
2023/03/22 02:38:01;;;;;;;3.00;1.70;;;10.90;63.50;;;;;;5056068;28;20025;-65
2023/03/22 02:40:33;;;;;;;2.85;1.75;;;10.90;63.70;;;;;;5046499;28;20033;-65
2023/03/22 02:43:24;;;;;;;2.50;1.48;;;10.80;63.70;;;;;;5063490;28;20044;-65
2023/03/22 02:46:21;;;;;;;2.25;1.35;;;10.80;64.10;;;;;;5065766;28;20025;-65
2023/03/22 02:48:47;;;;;;;2.35;1.60;;;10.70;64.40;;;;;;5058914;28;20057;-64
2023/03/22 02:51:20;;;;;;;2.00;1.42;;;10.70;63.70;;;;;;5061401;28;20758;-64
2023/03/22 02:54:17;;;;;;;2.40;1.52;;;10.60;63.90;;;;;;5056830;28;20105;-65
2023/03/22 02:57:00;;;;;;;4.18;1.58;;;10.50;64.40;;;;;;5061793;28;20041;-64
2023/03/22 02:59:28;;;;;;;7.20;1.63;;;10.50;64.30;;;;;;5063158;28;20045;-64
2023/03/22 03:01:57;;;;;;;3.45;1.27;;;10.40;63.90;;;;;;5055675;28;20043;-64
2023/03/22 03:04:31;;;;;;;6.05;1.70;;;10.40;64.00;;;;;;5057940;28;20029;-64
2023/03/22 03:07:03;;;;;;;6.88;1.67;;;10.30;64.00;;;;;;5060076;28;20161;-64
2023/03/22 03:09:30;;;;;;;2.15;1.75;;;10.20;64.10;;;;;;5062780;28;20037;-64
2023/03/22 03:11:56;;;;;;;4.28;1.80;;;10.20;64.00;;;;;;5060964;28;20033;-64
2023/03/22 03:14:27;;;;;;;2.75;1.50;;;10.20;64.00;;;;;;5053257;28;20105;-64
2023/03/22 03:17:13;;;;;;;5.05;1.80;;;10.10;64.00;;;;;;5060238;28;20041;-65
2023/03/22 03:19:48;;;;;;;3.70;1.58;;;10.10;64.40;;;;;;5062419;28;20388;-65
2023/03/22 03:22:23;;;;;;;2.47;1.70;;;10.00;64.00;;;;;;5071876;28;20043;-65
2023/03/22 03:24:56;;;;;;;;;;;10.00;64.10;;;;;;5061691;28;20021;-65
2023/03/22 03:27:31;;;;;;;4.05;1.40;;;10.00;64.30;;;;;;5060719;28;19921;-65
2023/03/22 03:30:03;;;;;;;2.50;1.38;;;9.90;63.60;;;;;;5061206;28;20024;-65
2023/03/22 03:32:41;;;;;;;4.40;1.50;;;9.90;63.50;;;;;;5063278;28;20494;-65
2023/03/22 03:35:21;;;;;;;1.70;1.27;;;9.80;64.40;;;;;;5062130;28;20148;-65
2023/03/22 03:38:00;;;;;;;4.07;1.60;;;9.70;63.80;;;;;;5059815;28;20128;-65
2023/03/22 03:40:48;;;;;;;2.80;1.70;;;9.60;64.00;;;;;;5054777;28;20084;-65
2023/03/22 03:43:15;;;;;;;2.65;1.70;;;9.60;64.50;;;;;;5059530;28;20067;-65
2023/03/22 03:45:41;;;;;;;1.65;1.45;;;9.50;64.00;;;;;;5055594;28;20035;-65
2023/03/22 03:48:11;;;;;;;3.38;1.60;;;9.50;64.20;;;;;;5059709;28;20028;-65
2023/03/22 03:50:37;;;;;;;3.00;1.45;;;9.70;65.10;;;;;;5062614;28;21153;-63
2023/03/22 03:53:03;;;;;;;1.52;1.35;;;9.40;64.20;;;;;;5056295;28;20043;-65
2023/03/22 03:55:30;;;;;;;4.25;1.33;;;9.40;64.30;;;;;;5062188;28;20041;-65
2023/03/22 03:57:56;;;;;;;3.15;1.42;;;9.40;64.40;;;;;;5061267;28;20017;-65
2023/03/22 04:00:21;;;;;;;3.72;1.90;;;9.30;64.30;;;;;;5060203;28;20048;-65
2023/03/22 04:02:47;;;;;;;3.72;1.48;;;9.30;64.40;;;;;;5060932;28;20040;-64
2023/03/22 04:05:13;;;;;;;3.05;1.65;;;9.20;64.40;;;;;;5058447;28;20029;-65
2023/03/22 04:07:40;;;;;;;3.30;1.42;;;9.20;64.30;;;;;;5058819;28;20056;-64
2023/03/22 04:10:06;;;;;;;3.40;1.50;;;9.20;64.40;;;;;;5052431;28;20053;-65
2023/03/22 04:12:32;;;;;;;3.33;1.48;;;9.10;64.40;;;;;;5046196;28;20025;-65
2023/03/22 04:14:58;;;;;;;2.28;1.52;;;9.10;64.50;;;;;;5063448;28;20052;-65
2023/03/22 04:17:24;;;;;;;1.73;1.50;;;9.10;64.50;;;;;;5064638;28;20017;-65
2023/03/22 04:19:52;;;;;;;5.18;1.98;;;9.00;64.50;;;;;;5056232;28;20086;-65
2023/03/22 04:22:18;;;;;;;2.17;1.90;;;9.00;64.70;;;;;;5060355;28;20067;-64
2023/03/22 04:24:48;;;;;;;2.22;1.60;;;8.90;64.70;;;;;;5063051;28;20029;-65
2023/03/22 04:27:15;;;;;;;2.45;1.60;;;8.90;64.80;;;;;;5056734;28;20036;-65
2023/03/22 04:29:46;;;;;;;2.65;1.38;;;8.90;64.80;;;;;;5058804;28;20040;-65
2023/03/22 04:32:21;;;;;;;3.05;1.40;;;8.90;64.80;;;;;;5061351;28;20040;-65
2023/03/22 04:34:47;;;;;;;1.92;1.40;;;8.80;64.80;;;;;;5051077;28;20483;-64
2023/03/22 04:37:14;;;;;;;2.80;1.60;;;8.80;64.80;;;;;;5055290;28;20037;-64
2023/03/22 04:39:41;;;;;;;3.45;1.27;;;8.80;64.90;;;;;;5057363;28;20212;-66
2023/03/22 04:42:07;;;;;;;2.50;1.55;;;8.70;64.80;;;;;;5058051;28;20043;-64
2023/03/22 04:44:33;;;;;;;2.78;1.42;;;8.70;64.80;;;;;;5061326;28;20033;-65
2023/03/22 04:46:59;;;;;;;6.68;1.75;;;8.60;64.90;;;;;;5057136;28;20036;-65
2023/03/22 04:49:25;;;;;;;7.32;1.80;;;8.60;65.00;;;;;;5058590;28;20083;-65
2023/03/22 04:51:52;;;;;;;2.83;1.85;;;8.60;65.00;;;;;;5053738;28;20020;-65
2023/03/22 04:54:18;;;;;;;5.05;1.50;;;8.60;65.00;;;;;;5082722;28;20025;-65
2023/03/22 04:56:44;;;;;;;3.83;1.67;;;8.60;65.10;;;;;;5063364;28;20047;-65
2023/03/22 04:59:09;;;;;;;6.20;1.90;;;8.50;65.10;;;;;;5066931;28;20029;-65
2023/03/22 05:01:36;;;;;;;9.00;1.90;;;8.50;65.10;;;;;;5063249;28;20024;-65
2023/03/22 05:04:02;;;;;;;2.55;1.77;;;8.50;65.20;;;;;;5054209;28;20140;-65
2023/03/22 05:06:31;;;;;;;4.93;2.17;;;8.40;65.20;;;;;;5057164;28;20024;-65
2023/03/22 05:08:57;;;;;;;4.78;2.25;;;8.40;65.20;;;;;;5056965;28;20388;-64
2023/03/22 05:11:26;;;;;;;4.60;2.10;;;8.40;65.20;;;;;;5055975;28;20025;-65
2023/03/22 05:13:55;;;;;;;5.93;1.90;;;8.30;65.20;;;;;;5064638;28;20028;-65
2023/03/22 05:16:21;;;;;;;2.17;1.60;;;8.30;65.30;;;;;;5061362;28;20395;-64
2023/03/22 05:18:48;;;;;;;3.40;1.80;;;8.30;65.40;;;;;;5056210;28;20037;-65
2023/03/22 05:21:16;;;;;;;2.63;1.90;;;8.30;65.40;;;;;;5063897;28;20021;-65
2023/03/22 05:23:43;;;;;;;5.03;1.90;;;8.30;65.50;;;;;;5068580;28;20028;-65
2023/03/22 05:26:14;;;;;;;9.57;1.90;;;8.20;65.50;;;;;;5063128;28;20025;-65
2023/03/22 05:28:40;;;;;;;8.52;2.10;;;8.20;65.50;;;;;;5061723;28;20047;-65
2023/03/22 05:31:07;;;;;;;2.95;1.92;;;8.20;65.50;;;;;;5066621;28;20032;-65
2023/03/22 05:33:33;;;;;;;3.03;1.60;;;8.20;65.60;;;;;;5070511;28;20112;-65
2023/03/22 05:35:59;;;;;;;4.40;2.03;;;8.20;65.80;;;;;;5072110;28;20025;-65
2023/03/22 05:38:25;;;;;;;3.72;1.88;;;8.10;65.70;;;;;;5061548;28;20058;-65
2023/03/22 05:40:50;;;;;;;2.45;1.75;;;8.10;65.60;;;;;;5060742;28;20029;-65
2023/03/22 05:43:16;;;;;;;3.40;1.63;;;8.10;65.60;;;;;;5053973;28;20025;-65
2023/03/22 05:45:42;;;;;;;5.18;1.70;;;8.10;66.30;;;;;;5056455;28;20109;-65
2023/03/22 05:48:08;;;;;;;3.85;2.10;;;8.10;66.50;;;;;;5059061;28;20526;-65
2023/03/22 05:50:34;;;;;;;9.85;1.90;;;8.10;65.90;;;;;;5062267;28;20032;-65
2023/03/22 05:53:01;;;;;;;6.78;1.60;;;8.10;66.10;;;;;;5062850;28;20045;-65
2023/03/22 05:55:29;;;;;;;2.97;1.88;;;8.10;66.30;;;;;;5062029;28;20025;-65
2023/03/22 05:57:55;;;;;;;2.65;1.90;;;8.20;66.50;;;;;;5056646;28;20114;-65
2023/03/22 06:00:22;;;;;;;5.18;2.13;;;8.20;66.40;;;;;;5068184;28;20024;-65
2023/03/22 06:02:51;;;;;;;3.55;1.88;;;8.20;66.30;;;;;;5061246;28;20025;-65
2023/03/22 06:05:17;;;;;;;4.25;1.98;;;8.30;66.50;;;;;;5066296;28;20033;-65
2023/03/22 06:07:43;;;;;;;3.17;1.90;;;8.30;66.50;;;;;;5062495;28;20032;-65
2023/03/22 06:10:12;;;;;;;2.97;1.80;;;8.40;66.60;;;;;;5060499;28;20010;-65
2023/03/22 06:12:37;;;;;;;4.95;1.95;;;8.40;66.70;;;;;;5054002;28;20075;-65
2023/03/22 06:15:04;;;;;;;5.20;1.92;;;8.50;66.80;;;;;;5069824;28;20055;-65
2023/03/22 06:17:30;;;;;;;3.80;2.00;;;8.60;66.80;;;;;;5056268;28;20036;-65
2023/03/22 06:19:56;;;;;;;4.68;1.73;;;8.60;66.60;;;;;;5071864;28;20020;-65
2023/03/22 06:22:22;;;;;;;4.68;2.40;;;8.60;66.70;;;;;;5062350;28;20144;-65
2023/03/22 06:24:48;;;;;;;3.30;2.10;;;8.70;66.80;;;;;;5063805;28;20051;-65
2023/03/22 06:27:15;;;;;;;4.28;2.30;;;8.80;66.80;;;;;;5061806;28;20101;-65
2023/03/22 06:29:40;;;;;;;3.65;2.20;;;8.80;66.80;;;;;;5071309;28;20035;-65
2023/03/22 06:32:06;;;;;;;2.20;1.90;;;8.80;66.70;;;;;;5060270;28;20488;-65
2023/03/22 06:34:32;;;;;;;7.70;2.30;;;8.90;66.80;;;;;;5054975;28;20049;-65
2023/03/22 06:36:58;;;;;;;3.40;2.40;;;9.00;66.80;;;;;;5066392;28;20020;-64
2023/03/22 06:39:24;;;;;;;3.60;2.33;;;9.10;66.90;;;;;;5058633;28;20024;-65
2023/03/22 06:41:51;;;;;;;5.93;2.53;;;9.20;67.00;;;;;;5064067;28;20163;-65
2023/03/22 06:44:18;;;;;;;6.40;2.72;;;9.30;66.90;;;;;;5057606;28;20033;-65
2023/03/22 06:46:43;;;;;;;3.63;2.45;;;9.40;67.00;;;;;;5057087;28;20076;-65
2023/03/22 06:49:09;;;;;;;6.95;3.05;;;9.50;67.00;;;;;;5063108;28;20024;-65
2023/03/22 06:51:35;;;;;;;5.20;2.72;;;9.60;66.90;;;;;;5064388;28;20084;-65
2023/03/22 06:54:01;;;;;;;3.92;2.55;;;9.70;66.90;;;;;;5065234;28;20021;-65
2023/03/22 06:56:27;;;;;;;3.80;2.58;;;9.80;66.90;;;;;;5053315;28;20484;-64
2023/03/22 06:58:53;;;;;;;7.00;2.80;;;9.90;66.80;;;;;;5066748;28;20032;-65
2023/03/22 07:01:20;;;;;;;7.13;2.97;;;10.00;66.70;;;;;;5068403;28;20040;-65
2023/03/22 07:03:46;;;;;;;5.57;2.53;;;10.20;66.70;;;;;;5062376;28;20029;-64
2023/03/22 07:06:12;;;;;;;11.98;2.85;;;10.30;66.40;;;;;;5064369;28;20088;-64
2023/03/22 07:08:38;;;;;;;5.65;2.70;;;10.40;66.30;;;;;;5061353;28;20036;-64
2023/03/22 07:11:04;;;;;;;9.27;2.70;;;10.50;66.20;;;;;;5061113;28;20087;-64
2023/03/22 07:13:32;;;;;;;7.25;2.42;;;10.60;66.10;;;;;;5055002;28;20025;-64
2023/03/22 07:16:01;;;;;;;6.88;2.78;;;10.80;66.00;;;;;;5057044;28;20033;-64
2023/03/22 07:18:28;;;;;;;8.45;3.45;;;10.90;65.90;;;;;;5071530;28;20502;-64
2023/03/22 07:20:54;;;;;;;6.25;3.03;;;11.00;65.70;;;;;;5065298;28;20057;-64
2023/03/22 07:23:19;;;;;;;5.28;2.83;;;11.20;65.50;;;;;;5059678;28;20055;-64
2023/03/22 07:25:46;;;;;;;3.95;2.65;;;11.30;65.20;;;;;;5060771;28;20105;-64
2023/03/22 07:28:14;;;;;;;7.07;3.10;;;11.40;65.00;;;;;;5069438;28;20037;-64
2023/03/22 07:30:40;;;;;;;6.13;3.00;;;11.50;65.60;;;;;;5058585;28;20036;-64
2023/03/22 07:33:07;;;;;;;6.00;3.10;;;11.60;64.90;;;;;;5061435;28;20029;-64
2023/03/22 07:35:35;;;;;;;5.95;3.20;;;11.70;64.90;;;;;;5066011;28;20045;-64
2023/03/22 07:38:01;;;;;;;6.05;3.50;;;11.80;64.80;;;;;;5069576;28;20017;-64
2023/03/22 07:40:27;;;;;;;6.78;3.38;;;12.00;64.80;;;;;;5062530;28;20107;-64
2023/03/22 07:42:53;;;;;;;6.18;3.58;;;12.20;64.60;;;;;;5061368;28;20510;-64
2023/03/22 07:45:20;;;;;;;4.57;3.03;;;12.30;64.50;;;;;;5066744;28;20028;-64
2023/03/22 07:47:46;;;;;;;5.22;4.05;;;12.50;64.40;;;;;;5063185;28;20044;-64
2023/03/22 07:50:12;;;;;;;12.35;3.72;;;12.60;64.40;;;;;;5051401;28;20030;-64
2023/03/22 07:52:41;;;;;;;88.97;10.20;;;12.80;64.40;;;;;;5064313;28;20463;-64
2023/03/22 07:55:09;;;;;;;17.35;4.35;;;13.00;64.40;;;;;;5065599;28;20058;-64
2023/03/22 07:57:36;;;;;;;7.25;3.13;;;13.10;64.20;;;;;;5058055;28;20052;-64
2023/03/22 08:00:03;;;;;;;7.43;3.50;;;13.20;64.00;;;;;;5060495;28;20387;-63
2023/03/22 08:02:29;;;;;;;7.70;3.45;;;13.40;63.90;;;;;;5070763;28;20021;-64
2023/03/22 08:04:55;;;;;;;5.30;3.40;;;13.60;63.80;;;;;;5070700;28;20096;-64
2023/03/22 08:07:23;;;;;;;5.30;3.38;;;13.70;63.70;;;;;;5062795;28;20053;-64
2023/03/22 08:09:49;;;;;;;5.07;3.47;;;13.90;63.50;;;;;;5056115;28;20417;-64
2023/03/22 08:12:15;;;;;;;6.85;3.78;;;14.10;63.40;;;;;;5054474;28;20029;-64
2023/03/22 08:14:41;;;;;;;5.70;3.30;;;14.20;63.20;;;;;;5055934;28;20086;-64
2023/03/22 08:17:06;;;;;;;6.20;3.00;;;14.40;63.10;;;;;;5058313;28;20039;-64
2023/03/22 08:19:33;;;;;;;9.13;3.53;;;14.50;62.60;;;;;;5063446;28;20032;-64
2023/03/22 08:21:58;;;;;;;6.60;3.90;;;14.70;62.20;;;;;;5062961;28;20028;-64
2023/03/22 08:24:25;;;;;;;5.20;3.28;;;14.80;61.40;;;;;;5061002;28;20083;-64
2023/03/22 08:26:51;;;;;;;6.22;3.85;;;15.00;61.00;;;;;;5059193;28;20085;-63
2023/03/22 08:29:17;;;;;;;4.95;3.63;;;15.20;60.50;;;;;;5056961;28;20029;-64
2023/03/22 08:31:43;;;;;;;6.72;3.85;;;15.30;60.30;;;;;;5063072;28;20017;-63
2023/03/22 08:34:09;;;;;;;5.78;3.17;;;15.40;59.80;;;;;;5052398;28;20045;-63
2023/03/22 08:36:36;;;;;;;5.93;2.70;;;15.60;59.60;;;;;;5049378;28;20033;-63
2023/03/22 08:39:03;;;;;;;4.45;2.85;;;15.70;59.20;;;;;;5059438;28;20041;-63
2023/03/22 08:41:29;;;;;;;4.85;3.13;;;15.80;58.90;;;;;;5063172;28;20533;-63
2023/03/22 08:43:55;;;;;;;5.72;2.95;;;16.00;58.60;;;;;;5064132;28;20085;-63
2023/03/22 08:46:20;;;;;;;5.53;3.00;;;16.10;58.20;;;;;;5057992;28;20025;-64
2023/03/22 08:48:49;;;;;;;7.75;3.13;;;16.30;57.80;;;;;;5060102;28;20037;-63
2023/03/22 08:51:20;;;;;;;4.15;2.90;;;16.40;57.50;;;;;;5052967;28;20017;-63
2023/03/22 08:53:47;;;;;;;4.65;3.00;;;16.50;56.70;;;;;;5056245;28;20037;-63
2023/03/22 08:56:15;;;;;;;5.57;3.30;;;16.60;56.60;;;;;;5054155;28;20017;-64
2023/03/22 08:58:45;;;;;;;8.00;2.65;;;16.70;56.70;;;;;;5059617;28;20025;-62
2023/03/22 09:01:12;;;;;;;6.45;2.92;;;16.80;56.50;;;;;;5057579;28;20384;-63
2023/03/22 09:03:38;;;;;;;3.63;1.95;;;16.90;56.40;;;;;;5056308;28;20351;-63
2023/03/22 09:06:04;;;;;;;2.30;1.73;;;17.00;55.90;;;;;;5062213;28;20024;-63
2023/03/22 09:08:30;;;;;;;3.15;2.20;;;17.10;55.70;;;;;;5060676;28;20029;-63
2023/03/22 09:10:55;;;;;;;3.42;2.03;;;17.30;55.20;;;;;;5061097;28;20056;-63
2023/03/22 09:13:21;;;;;;;4.90;1.80;;;17.50;55.30;;;;;;5062232;28;20017;-64
2023/03/22 09:15:47;;;;;;;4.30;1.77;;;17.60;54.80;;;;;;5058283;28;20041;-65
2023/03/22 09:18:14;;;;;;;1.60;1.20;;;17.70;54.50;;;;;;5057956;28;20096;-65
2023/03/22 09:20:39;;;;;;;1.40;1.00;;;17.80;54.10;;;;;;5054936;28;20032;-63
2023/03/22 09:23:05;;;;;;;2.28;1.10;;;18.00;52.70;;;;;;5055185;28;20032;-63
2023/03/22 09:25:31;;;;;;;1.77;1.00;;;18.10;52.10;;;;;;5063824;28;20036;-64
2023/03/22 09:27:57;;;;;;;1.17;0.80;;;18.20;51.70;;;;;;5059071;28;20066;-64
2023/03/22 09:30:23;;;;;;;1.63;0.90;;;18.20;51.60;;;;;;5060244;28;20059;-64
2023/03/22 09:32:48;;;;;;;3.03;1.00;;;18.30;51.50;;;;;;5057057;28;20105;-64
2023/03/22 09:35:14;;;;;;;1.83;1.00;;;18.40;50.90;;;;;;5057727;28;20455;-65
2023/03/22 09:37:40;;;;;;;3.20;1.00;;;18.40;51.40;;;;;;5064603;28;20028;-63
2023/03/22 09:40:07;;;;;;;2.03;1.10;;;18.50;51.80;;;;;;5061052;28;20053;-63
2023/03/22 09:42:41;;;;;;;2.40;1.00;;;18.60;50.20;;;;;;5060197;28;20021;-65
2023/03/22 09:45:13;;;;;;;3.77;1.20;;;18.70;49.10;;;;;;5055152;28;20036;-65
2023/03/22 09:47:45;;;;;;;4.00;0.90;;;18.70;49.20;;;;;;5055906;28;20033;-65
2023/03/22 09:50:41;;;;;;;1.77;0.90;;;18.80;49.40;;;;;;5059598;28;20040;-64
2023/03/22 09:53:12;;;;;;;1.65;1.00;;;18.90;47.80;;;;;;5059315;28;20033;-62
2023/03/22 09:56:00;;;;;;;2.13;1.10;;;19.00;49.60;;;;;;5055802;28;20053;-63
2023/03/22 09:58:37;;;;;;;3.38;1.30;;;19.10;48.50;;;;;;5056949;28;20025;-64
2023/03/22 10:01:13;;;;;;;1.77;1.02;;;19.20;49.20;;;;;;5059161;28;20480;-66
2023/03/22 10:04:12;;;;;;;2.97;1.30;;;19.20;49.90;;;;;;5058646;28;20037;-65
2023/03/22 10:06:42;;;;;;;4.00;1.02;;;19.30;49.50;;;;;;5056261;28;20028;-65
2023/03/22 10:09:15;;;;;;;3.17;1.30;;;19.40;49.90;;;;;;5056789;28;20033;-63
2023/03/22 10:11:50;;;;;;;2.33;1.30;;;19.60;49.70;;;;;;5054190;28;20016;-63
2023/03/22 10:14:30;;;;;;;1.67;1.20;;;19.70;49.90;;;;;;5065850;28;20021;-63
2023/03/22 10:16:57;;;;;;;2.00;1.00;;;19.80;48.80;;;;;;5042981;28;20028;-64
2023/03/22 10:19:34;;;;;;;1.63;0.80;;;19.90;49.40;;;;;;5063549;28;20050;-64
2023/03/22 10:22:03;;;;;;;1.75;1.00;;;20.00;48.90;;;;;;5056651;28;20079;-63
2023/03/22 10:24:34;;;;;;;2.67;1.00;;;20.20;49.10;;;;;;5064128;28;20025;-64
2023/03/22 10:27:01;;;;;;;3.30;0.80;;;20.30;48.00;;;;;;5048595;28;20029;-64
2023/03/22 10:29:47;;;;;;;1.52;1.10;;;20.40;48.10;;;;;;5052539;28;20021;-64
2023/03/22 10:32:16;;;;;;;3.92;1.23;;;20.50;46.90;;;;;;5050785;28;20035;-63
2023/03/22 10:34:42;;;;;;;1.92;0.90;;;20.50;47.40;;;;;;5066395;28;20111;-63
2023/03/22 10:37:16;;;;;;;1.55;0.95;;;20.60;47.50;;;;;;5059920;28;20013;-63
2023/03/22 10:39:48;;;;;;;2.40;1.20;;;20.60;47.00;;;;;;5058400;28;20045;-65
2023/03/22 10:42:18;;;;;;;2.13;1.00;;;20.60;46.80;;;;;;5055381;28;20035;-63
2023/03/22 10:44:54;;;;;;;3.88;0.90;;;20.70;46.70;;;;;;5073412;28;20028;-65
2023/03/22 10:47:32;;;;;;;2.63;0.88;;;20.80;46.30;;;;;;5056267;28;20033;-65
2023/03/22 10:50:02;;;;;;;2.42;1.00;;;20.80;46.40;;;;;;5061175;28;20100;-65
2023/03/22 10:52:55;;;;;;;2.15;1.00;;;20.80;45.90;;;;;;5056334;28;20017;-63
2023/03/22 10:55:23;;;;;;;4.78;1.33;;;20.90;45.00;;;;;;5068336;28;20583;-63
2023/03/22 10:58:16;;;;;;;2.97;1.38;;;20.90;46.20;;;;;;5065786;28;20029;-65
2023/03/22 11:00:45;;;;;;;1.27;0.88;;;20.90;45.30;;;;;;5069665;28;20055;-65
2023/03/22 11:03:36;;;;;;;1.35;0.90;;;21.00;45.90;;;;;;5064987;28;20025;-65
2023/03/22 11:06:35;;;;;;;2.03;1.10;;;21.10;44.90;;;;;;5063150;28;20024;-64
2023/03/22 11:09:22;;;;;;;3.05;1.40;;;21.20;44.80;;;;;;5065772;28;20032;-64
2023/03/22 11:11:53;;;;;;;2.70;1.45;;;21.20;43.70;;;;;;5050184;28;20079;-63
2023/03/22 11:14:25;;;;;;;5.03;1.70;;;21.30;45.30;;;;;;5058599;28;20028;-64
2023/03/22 11:16:56;;;;;;;3.58;1.67;;;21.30;45.20;;;;;;5059639;28;20028;-63
2023/03/22 11:19:33;;;;;;;2.50;1.70;;;21.30;45.90;;;;;;5060338;28;20507;-65
2023/03/22 11:22:01;;;;;;;2.80;1.50;;;21.40;45.80;;;;;;5060193;28;20088;-64
2023/03/22 11:24:29;;;;;;;2.33;1.63;;;21.40;45.60;;;;;;5062686;28;20086;-66
2023/03/22 11:27:15;;;;;;;1.80;1.52;;;21.50;45.30;;;;;;5056970;28;20348;-65
2023/03/22 11:29:48;;;;;;;3.45;1.40;;;21.60;44.40;;;;;;5047346;28;20064;-63
2023/03/22 11:32:35;;;;;;;2.38;1.48;;;21.60;44.70;;;;;;5050588;28;20044;-63
2023/03/22 11:35:10;;;;;;;2.40;1.45;;;21.70;44.60;;;;;;5062216;28;20078;-64
2023/03/22 11:37:44;;;;;;;2.88;1.60;;;21.80;45.00;;;;;;5055639;28;20420;-64
2023/03/22 11:40:18;;;;;;;2.42;1.50;;;21.90;45.30;;;;;;5062717;28;20020;-65
2023/03/22 11:42:45;;;;;;;2.58;1.58;;;21.90;44.90;;;;;;5062451;28;20040;-64
2023/03/22 11:45:19;;;;;;;3.55;1.70;;;21.90;45.30;;;;;;5064858;28;20357;-64
2023/03/22 11:47:45;;;;;;;;;;;22.00;44.20;;;;;;5069196;28;20044;-64
2023/03/22 11:50:29;;;;;;;3.80;1.27;;;22.10;44.10;;;;;;5067036;28;19932;-63
2023/03/22 11:52:56;;;;;;;;;;;22.10;43.60;;;;;;5057068;28;20033;-63
2023/03/22 11:55:23;;;;;;;3.10;1.50;;;22.20;45.00;;;;;;5064834;28;19946;-64
2023/03/22 11:57:49;;;;;;;2.53;1.38;;;22.10;44.00;;;;;;5061936;28;20108;-64
2023/03/22 12:00:21;;;;;;;2.35;1.60;;;22.00;43.90;;;;;;5056603;28;20423;-64
2023/03/22 12:02:58;;;;;;;2.88;1.75;;;21.90;43.50;;;;;;5054676;28;20043;-64
2023/03/22 12:05:27;;;;;;;3.58;1.35;;;21.90;43.70;;;;;;5055841;28;20020;-64
2023/03/22 12:08:25;;;;;;;1.42;1.33;;;21.90;44.10;;;;;;5060861;28;20033;-65
2023/03/22 12:11:04;;;;;;;2.03;1.02;;;22.00;43.00;;;;;;5037231;28;20038;-65
2023/03/22 12:13:39;;;;;;;1.63;1.10;;;22.10;44.10;;;;;;5061560;28;20500;-64
2023/03/22 12:16:06;;;;;;;2.25;1.25;;;22.20;44.20;;;;;;5055717;28;20044;-63
2023/03/22 12:19:03;;;;;;;1.83;1.13;;;22.40;44.00;;;;;;5056857;28;20025;-64
2023/03/22 12:21:30;;;;;;;1.95;1.10;;;22.60;42.70;;;;;;5053426;28;20029;-64
2023/03/22 12:24:00;;;;;;;2.75;1.33;;;22.70;43.70;;;;;;5061564;28;20025;-63
2023/03/22 12:26:28;;;;;;;7.75;1.95;;;22.90;42.90;;;;;;5056203;28;20036;-65
2023/03/22 12:29:04;;;;;;;1.90;1.00;;;23.00;41.10;;;;;;5060630;28;20025;-64
2023/03/22 12:31:36;;;;;;;2.08;1.00;;;23.00;41.00;;;;;;5061955;28;20036;-65
2023/03/22 12:34:07;;;;;;;4.68;0.95;;;23.20;41.10;;;;;;5058019;28;20491;-66
2023/03/22 12:36:41;;;;;;;3.83;1.00;;;23.20;40.40;;;;;;5051326;28;20033;-64
2023/03/22 12:39:12;;;;;;;4.18;1.08;;;23.40;40.70;;;;;;5054503;28;20518;-65
2023/03/22 12:41:42;;;;;;;1.50;1.08;;;23.40;40.00;;;;;;5059649;28;20036;-63
2023/03/22 12:44:17;;;;;;;2.53;1.10;;;23.50;40.10;;;;;;5055844;28;20043;-65
2023/03/22 12:47:03;;;;;;;1.58;1.00;;;23.50;39.90;;;;;;5065044;28;20102;-65
2023/03/22 12:49:46;;;;;;;1.80;1.13;;;23.70;39.50;;;;;;5054404;28;20057;-65
2023/03/22 12:52:18;;;;;;;1.55;1.05;;;23.80;38.50;;;;;;5053540;28;20032;-65
2023/03/22 12:54:45;;;;;;;2.28;1.10;;;23.90;40.00;;;;;;5056698;28;20025;-63
2023/03/22 12:57:13;;;;;;;5.13;1.30;;;23.90;40.10;;;;;;5055232;28;20024;-63
2023/03/22 12:59:42;;;;;;;3.97;1.48;;;23.90;39.80;;;;;;5055597;28;20029;-64
2023/03/22 13:02:16;;;;;;;4.43;1.30;;;23.90;39.70;;;;;;5051286;28;20034;-63
2023/03/22 13:04:42;;;;;;;2.47;1.00;;;23.90;39.00;;;;;;5058829;28;20020;-65